sensor_id;sensor_type;location;lat;lon;timestamp;temperature;humidity
12769;DHT22;6448;48.916;8.990;2024-01-30T00:00:57;8.40;55.70
12769;DHT22;6448;48.916;8.990;2024-01-30T00:02:00;8.40;55.70
12769;DHT22;6448;48.916;8.990;2024-01-30T00:03:01;8.40;55.60
12769;DHT22;6448;48.916;8.990;2024-01-30T00:04:03;8.40;55.70
12769;DHT22;6448;48.916;8.990;2024-01-30T00:05:04;8.40;55.70
12769;DHT22;6448;48.916;8.990;2024-01-30T00:06:06;8.30;55.60
12769;DHT22;6448;48.916;8.990;2024-01-30T00:07:08;8.30;55.60
12769;DHT22;6448;48.916;8.990;2024-01-30T00:08:09;8.30;55.60
12769;DHT22;6448;48.916;8.990;2024-01-30T00:09:11;8.30;55.70
12769;DHT22;6448;48.916;8.990;2024-01-30T00:10:12;8.30;55.70
12769;DHT22;6448;48.916;8.990;2024-01-30T00:11:14;8.30;55.70
12769;DHT22;6448;48.916;8.990;2024-01-30T00:12:14;8.30;55.70
12769;DHT22;6448;48.916;8.990;2024-01-30T00:13:16;8.30;55.70
12769;DHT22;6448;48.916;8.990;2024-01-30T00:14:19;8.30;55.70
12769;DHT22;6448;48.916;8.990;2024-01-30T00:15:21;8.30;55.70
12769;DHT22;6448;48.916;8.990;2024-01-30T00:16:23;8.30;55.70
12769;DHT22;6448;48.916;8.990;2024-01-30T00:17:26;8.30;55.70
12769;DHT22;6448;48.916;8.990;2024-01-30T00:18:27;8.30;55.70
12769;DHT22;6448;48.916;8.990;2024-01-30T00:19:29;8.30;55.80
12769;DHT22;6448;48.916;8.990;2024-01-30T00:20:30;8.30;55.80
12769;DHT22;6448;48.916;8.990;2024-01-30T00:21:32;8.30;55.80
12769;DHT22;6448;48.916;8.990;2024-01-30T00:22:32;8.20;55.80
12769;DHT22;6448;48.916;8.990;2024-01-30T00:23:34;8.30;55.90
12769;DHT22;6448;48.916;8.990;2024-01-30T00:24:35;8.20;55.80
12769;DHT22;6448;48.916;8.990;2024-01-30T00:25:36;8.30;55.90
12769;DHT22;6448;48.916;8.990;2024-01-30T00:26:37;8.30;56.00
12769;DHT22;6448;48.916;8.990;2024-01-30T00:27:38;8.20;56.00
12769;DHT22;6448;48.916;8.990;2024-01-30T00:28:40;8.30;56.00
12769;DHT22;6448;48.916;8.990;2024-01-30T00:29:41;8.20;55.90
12769;DHT22;6448;48.916;8.990;2024-01-30T00:30:43;8.20;55.90
12769;DHT22;6448;48.916;8.990;2024-01-30T00:31:43;8.20;55.90
12769;DHT22;6448;48.916;8.990;2024-01-30T00:32:46;8.20;55.90
12769;DHT22;6448;48.916;8.990;2024-01-30T00:33:47;8.20;55.90
12769;DHT22;6448;48.916;8.990;2024-01-30T00:34:49;8.20;55.90
12769;DHT22;6448;48.916;8.990;2024-01-30T00:35:50;8.20;55.90
12769;DHT22;6448;48.916;8.990;2024-01-30T00:36:51;8.20;55.90
12769;DHT22;6448;48.916;8.990;2024-01-30T00:37:52;8.20;55.90
12769;DHT22;6448;48.916;8.990;2024-01-30T00:38:53;8.20;55.90
12769;DHT22;6448;48.916;8.990;2024-01-30T00:39:55;8.20;56.00
12769;DHT22;6448;48.916;8.990;2024-01-30T00:40:56;8.20;56.00
12769;DHT22;6448;48.916;8.990;2024-01-30T00:41:57;8.30;56.00
12769;DHT22;6448;48.916;8.990;2024-01-30T00:42:58;8.10;56.00
12769;DHT22;6448;48.916;8.990;2024-01-30T00:43:59;8.00;55.90
12769;DHT22;6448;48.916;8.990;2024-01-30T00:45:01;8.20;56.10
12769;DHT22;6448;48.916;8.990;2024-01-30T00:46:02;8.10;56.00
12769;DHT22;6448;48.916;8.990;2024-01-30T00:47:04;8.40;56.20
12769;DHT22;6448;48.916;8.990;2024-01-30T00:48:06;8.10;56.00
12769;DHT22;6448;48.916;8.990;2024-01-30T00:49:08;8.10;56.00
12769;DHT22;6448;48.916;8.990;2024-01-30T00:50:09;8.10;56.00
12769;DHT22;6448;48.916;8.990;2024-01-30T00:51:10;8.10;56.00
12769;DHT22;6448;48.916;8.990;2024-01-30T00:52:12;8.10;56.10
12769;DHT22;6448;48.916;8.990;2024-01-30T00:53:13;8.10;56.10
12769;DHT22;6448;48.916;8.990;2024-01-30T00:54:14;8.10;56.10
12769;DHT22;6448;48.916;8.990;2024-01-30T00:55:15;8.10;56.10
12769;DHT22;6448;48.916;8.990;2024-01-30T00:56:16;8.10;56.20
12769;DHT22;6448;48.916;8.990;2024-01-30T00:57:18;8.10;56.20
12769;DHT22;6448;48.916;8.990;2024-01-30T00:58:19;8.10;56.20
12769;DHT22;6448;48.916;8.990;2024-01-30T00:59:20;8.10;56.20
12769;DHT22;6448;48.916;8.990;2024-01-30T01:00:22;8.10;56.20
12769;DHT22;6448;48.916;8.990;2024-01-30T01:01:23;8.10;56.30
12769;DHT22;6448;48.916;8.990;2024-01-30T01:02:25;8.10;56.20
12769;DHT22;6448;48.916;8.990;2024-01-30T01:03:27;8.10;56.20
12769;DHT22;6448;48.916;8.990;2024-01-30T01:04:29;8.10;56.20
12769;DHT22;6448;48.916;8.990;2024-01-30T01:05:30;8.10;56.30
12769;DHT22;6448;48.916;8.990;2024-01-30T01:06:30;8.10;56.20
12769;DHT22;6448;48.916;8.990;2024-01-30T01:07:32;8.10;56.20
12769;DHT22;6448;48.916;8.990;2024-01-30T01:08:33;8.10;56.20
12769;DHT22;6448;48.916;8.990;2024-01-30T01:09:35;8.10;56.20
12769;DHT22;6448;48.916;8.990;2024-01-30T01:10:35;8.00;56.10
12769;DHT22;6448;48.916;8.990;2024-01-30T01:11:37;8.00;56.20
12769;DHT22;6448;48.916;8.990;2024-01-30T01:12:38;8.10;56.20
12769;DHT22;6448;48.916;8.990;2024-01-30T01:13:40;8.00;56.20
12769;DHT22;6448;48.916;8.990;2024-01-30T01:14:41;8.00;56.20
12769;DHT22;6448;48.916;8.990;2024-01-30T01:15:42;8.00;56.20
12769;DHT22;6448;48.916;8.990;2024-01-30T01:16:43;8.00;56.10
12769;DHT22;6448;48.916;8.990;2024-01-30T01:17:45;8.00;56.10
12769;DHT22;6448;48.916;8.990;2024-01-30T01:18:48;8.00;56.10
12769;DHT22;6448;48.916;8.990;2024-01-30T01:19:49;8.00;56.10
12769;DHT22;6448;48.916;8.990;2024-01-30T01:20:50;8.00;56.10
12769;DHT22;6448;48.916;8.990;2024-01-30T01:21:52;8.00;56.10
12769;DHT22;6448;48.916;8.990;2024-01-30T01:22:53;8.00;56.20
12769;DHT22;6448;48.916;8.990;2024-01-30T01:23:55;8.00;56.20
12769;DHT22;6448;48.916;8.990;2024-01-30T01:24:56;8.00;56.20
12769;DHT22;6448;48.916;8.990;2024-01-30T01:25:56;8.00;56.20
12769;DHT22;6448;48.916;8.990;2024-01-30T01:27:00;8.00;56.20
12769;DHT22;6448;48.916;8.990;2024-01-30T01:28:01;8.00;56.20
12769;DHT22;6448;48.916;8.990;2024-01-30T01:29:02;8.00;56.20
12769;DHT22;6448;48.916;8.990;2024-01-30T01:30:11;8.00;56.20
12769;DHT22;6448;48.916;8.990;2024-01-30T01:31:18;8.00;56.20
12769;DHT22;6448;48.916;8.990;2024-01-30T01:32:19;8.00;56.20
12769;DHT22;6448;48.916;8.990;2024-01-30T01:33:21;8.10;56.30
12769;DHT22;6448;48.916;8.990;2024-01-30T01:34:24;8.00;56.20
12769;DHT22;6448;48.916;8.990;2024-01-30T01:35:26;8.10;56.30
12769;DHT22;6448;48.916;8.990;2024-01-30T01:36:27;8.00;56.30
12769;DHT22;6448;48.916;8.990;2024-01-30T01:37:28;8.00;56.20
12769;DHT22;6448;48.916;8.990;2024-01-30T01:38:29;7.90;56.20
12769;DHT22;6448;48.916;8.990;2024-01-30T01:39:30;8.00;56.20
12769;DHT22;6448;48.916;8.990;2024-01-30T01:40:32;8.00;56.20
12769;DHT22;6448;48.916;8.990;2024-01-30T01:41:33;7.90;56.20
12769;DHT22;6448;48.916;8.990;2024-01-30T01:42:35;8.00;56.20
12769;DHT22;6448;48.916;8.990;2024-01-30T01:43:36;7.90;56.20
12769;DHT22;6448;48.916;8.990;2024-01-30T01:44:38;7.90;56.20
12769;DHT22;6448;48.916;8.990;2024-01-30T01:45:39;7.90;56.20
12769;DHT22;6448;48.916;8.990;2024-01-30T01:46:41;7.90;56.20
12769;DHT22;6448;48.916;8.990;2024-01-30T01:47:42;7.90;56.20
12769;DHT22;6448;48.916;8.990;2024-01-30T01:48:46;7.90;56.20
12769;DHT22;6448;48.916;8.990;2024-01-30T01:49:48;7.90;56.20
12769;DHT22;6448;48.916;8.990;2024-01-30T01:50:51;7.90;56.20
12769;DHT22;6448;48.916;8.990;2024-01-30T01:51:54;7.90;56.30
12769;DHT22;6448;48.916;8.990;2024-01-30T01:52:57;7.90;56.30
12769;DHT22;6448;48.916;8.990;2024-01-30T01:54:02;7.90;56.30
12769;DHT22;6448;48.916;8.990;2024-01-30T01:55:05;7.90;56.30
12769;DHT22;6448;48.916;8.990;2024-01-30T01:56:06;7.80;56.20
12769;DHT22;6448;48.916;8.990;2024-01-30T01:57:08;7.80;56.20
12769;DHT22;6448;48.916;8.990;2024-01-30T01:58:09;7.90;56.30
12769;DHT22;6448;48.916;8.990;2024-01-30T01:59:11;7.90;56.30
12769;DHT22;6448;48.916;8.990;2024-01-30T02:00:13;7.90;56.30
12769;DHT22;6448;48.916;8.990;2024-01-30T02:01:14;7.90;56.30
12769;DHT22;6448;48.916;8.990;2024-01-30T02:02:18;7.90;56.30
12769;DHT22;6448;48.916;8.990;2024-01-30T02:03:19;7.80;56.30
12769;DHT22;6448;48.916;8.990;2024-01-30T02:04:22;7.80;56.30
12769;DHT22;6448;48.916;8.990;2024-01-30T02:05:24;7.80;56.30
12769;DHT22;6448;48.916;8.990;2024-01-30T02:06:27;7.90;56.30
12769;DHT22;6448;48.916;8.990;2024-01-30T02:07:28;7.90;56.30
12769;DHT22;6448;48.916;8.990;2024-01-30T02:08:30;7.90;56.30
12769;DHT22;6448;48.916;8.990;2024-01-30T02:09:31;7.80;56.30
12769;DHT22;6448;48.916;8.990;2024-01-30T02:10:33;7.80;56.30
12769;DHT22;6448;48.916;8.990;2024-01-30T02:11:35;7.80;56.30
12769;DHT22;6448;48.916;8.990;2024-01-30T02:12:38;7.80;56.30
12769;DHT22;6448;48.916;8.990;2024-01-30T02:13:39;7.80;56.40
12769;DHT22;6448;48.916;8.990;2024-01-30T02:14:45;7.80;56.30
12769;DHT22;6448;48.916;8.990;2024-01-30T02:15:49;7.80;56.30
12769;DHT22;6448;48.916;8.990;2024-01-30T02:16:51;7.80;56.30
12769;DHT22;6448;48.916;8.990;2024-01-30T02:17:52;7.80;56.30
12769;DHT22;6448;48.916;8.990;2024-01-30T02:18:53;7.80;56.30
12769;DHT22;6448;48.916;8.990;2024-01-30T02:19:54;7.80;56.30
12769;DHT22;6448;48.916;8.990;2024-01-30T02:20:58;7.80;56.30
12769;DHT22;6448;48.916;8.990;2024-01-30T02:22:04;7.80;56.40
12769;DHT22;6448;48.916;8.990;2024-01-30T02:23:07;7.80;56.40
12769;DHT22;6448;48.916;8.990;2024-01-30T02:24:10;7.80;56.40
12769;DHT22;6448;48.916;8.990;2024-01-30T02:25:11;7.80;56.30
12769;DHT22;6448;48.916;8.990;2024-01-30T02:26:13;7.80;56.30
12769;DHT22;6448;48.916;8.990;2024-01-30T02:27:13;7.80;56.30
12769;DHT22;6448;48.916;8.990;2024-01-30T02:28:15;7.80;56.30
12769;DHT22;6448;48.916;8.990;2024-01-30T02:29:16;7.80;56.20
12769;DHT22;6448;48.916;8.990;2024-01-30T02:30:18;7.70;56.20
12769;DHT22;6448;48.916;8.990;2024-01-30T02:31:19;7.80;56.30
12769;DHT22;6448;48.916;8.990;2024-01-30T02:32:20;7.70;56.20
12769;DHT22;6448;48.916;8.990;2024-01-30T02:33:21;7.70;56.20
12769;DHT22;6448;48.916;8.990;2024-01-30T02:34:24;7.70;56.20
12769;DHT22;6448;48.916;8.990;2024-01-30T02:35:24;7.70;56.20
12769;DHT22;6448;48.916;8.990;2024-01-30T02:36:26;7.70;56.20
12769;DHT22;6448;48.916;8.990;2024-01-30T02:37:28;7.70;56.20
12769;DHT22;6448;48.916;8.990;2024-01-30T02:38:30;7.70;56.20
12769;DHT22;6448;48.916;8.990;2024-01-30T02:39:31;7.70;56.40
12769;DHT22;6448;48.916;8.990;2024-01-30T02:40:32;7.70;56.20
12769;DHT22;6448;48.916;8.990;2024-01-30T02:41:34;7.80;56.30
12769;DHT22;6448;48.916;8.990;2024-01-30T02:42:34;7.70;56.20
12769;DHT22;6448;48.916;8.990;2024-01-30T02:43:36;7.70;56.20
12769;DHT22;6448;48.916;8.990;2024-01-30T02:44:37;7.70;56.20
12769;DHT22;6448;48.916;8.990;2024-01-30T02:45:38;7.70;56.30
12769;DHT22;6448;48.916;8.990;2024-01-30T02:46:39;7.70;56.30
12769;DHT22;6448;48.916;8.990;2024-01-30T02:47:45;7.60;56.30
12769;DHT22;6448;48.916;8.990;2024-01-30T02:48:51;7.70;56.30
12769;DHT22;6448;48.916;8.990;2024-01-30T02:49:52;7.60;56.20
12769;DHT22;6448;48.916;8.990;2024-01-30T02:50:53;7.70;56.20
12769;DHT22;6448;48.916;8.990;2024-01-30T02:51:54;7.60;56.20
12769;DHT22;6448;48.916;8.990;2024-01-30T02:52:58;7.60;56.20
12769;DHT22;6448;48.916;8.990;2024-01-30T02:53:59;7.60;56.20
12769;DHT22;6448;48.916;8.990;2024-01-30T02:55:01;7.60;56.20
12769;DHT22;6448;48.916;8.990;2024-01-30T02:56:02;7.60;56.20
12769;DHT22;6448;48.916;8.990;2024-01-30T02:57:04;7.60;56.20
12769;DHT22;6448;48.916;8.990;2024-01-30T02:58:05;7.60;56.80
12769;DHT22;6448;48.916;8.990;2024-01-30T02:59:07;7.60;56.20
12769;DHT22;6448;48.916;8.990;2024-01-30T03:00:09;7.70;56.20
12769;DHT22;6448;48.916;8.990;2024-01-30T03:01:10;7.60;56.20
12769;DHT22;6448;48.916;8.990;2024-01-30T03:02:11;7.60;56.20
12769;DHT22;6448;48.916;8.990;2024-01-30T03:03:12;7.50;56.20
12769;DHT22;6448;48.916;8.990;2024-01-30T03:04:14;7.50;56.20
12769;DHT22;6448;48.916;8.990;2024-01-30T03:05:14;7.50;56.30
12769;DHT22;6448;48.916;8.990;2024-01-30T03:06:15;7.60;56.30
12769;DHT22;6448;48.916;8.990;2024-01-30T03:07:18;7.50;56.30
12769;DHT22;6448;48.916;8.990;2024-01-30T03:08:20;7.50;56.30
12769;DHT22;6448;48.916;8.990;2024-01-30T03:09:22;7.50;56.30
12769;DHT22;6448;48.916;8.990;2024-01-30T03:10:23;7.50;56.40
12769;DHT22;6448;48.916;8.990;2024-01-30T03:11:24;7.50;56.30
12769;DHT22;6448;48.916;8.990;2024-01-30T03:12:25;7.50;56.30
12769;DHT22;6448;48.916;8.990;2024-01-30T03:13:26;7.50;56.40
12769;DHT22;6448;48.916;8.990;2024-01-30T03:14:30;7.50;56.40
12769;DHT22;6448;48.916;8.990;2024-01-30T03:15:31;7.50;56.40
12769;DHT22;6448;48.916;8.990;2024-01-30T03:16:32;7.50;56.40
12769;DHT22;6448;48.916;8.990;2024-01-30T03:17:33;7.60;56.50
12769;DHT22;6448;48.916;8.990;2024-01-30T03:18:37;7.50;56.40
12769;DHT22;6448;48.916;8.990;2024-01-30T03:19:37;7.50;56.40
12769;DHT22;6448;48.916;8.990;2024-01-30T03:20:38;7.50;56.40
12769;DHT22;6448;48.916;8.990;2024-01-30T03:21:40;7.50;56.40
12769;DHT22;6448;48.916;8.990;2024-01-30T03:22:41;7.50;56.40
12769;DHT22;6448;48.916;8.990;2024-01-30T03:23:44;7.50;56.40
12769;DHT22;6448;48.916;8.990;2024-01-30T03:24:44;7.40;56.40
12769;DHT22;6448;48.916;8.990;2024-01-30T03:25:45;7.50;56.40
12769;DHT22;6448;48.916;8.990;2024-01-30T03:26:47;7.40;56.40
12769;DHT22;6448;48.916;8.990;2024-01-30T03:27:48;7.40;56.50
12769;DHT22;6448;48.916;8.990;2024-01-30T03:28:50;7.40;56.50
12769;DHT22;6448;48.916;8.990;2024-01-30T03:29:50;7.40;56.50
12769;DHT22;6448;48.916;8.990;2024-01-30T03:30:52;7.40;56.50
12769;DHT22;6448;48.916;8.990;2024-01-30T03:31:53;7.40;56.50
12769;DHT22;6448;48.916;8.990;2024-01-30T03:32:55;7.40;56.50
12769;DHT22;6448;48.916;8.990;2024-01-30T03:33:55;7.40;56.50
12769;DHT22;6448;48.916;8.990;2024-01-30T03:34:57;7.40;56.50
12769;DHT22;6448;48.916;8.990;2024-01-30T03:36:03;7.40;56.60
12769;DHT22;6448;48.916;8.990;2024-01-30T03:37:04;7.40;56.60
12769;DHT22;6448;48.916;8.990;2024-01-30T03:38:05;7.40;56.70
12769;DHT22;6448;48.916;8.990;2024-01-30T03:39:08;7.40;56.70
12769;DHT22;6448;48.916;8.990;2024-01-30T03:40:10;7.40;56.60
12769;DHT22;6448;48.916;8.990;2024-01-30T03:41:12;7.40;56.60
12769;DHT22;6448;48.916;8.990;2024-01-30T03:42:12;7.40;56.60
12769;DHT22;6448;48.916;8.990;2024-01-30T03:43:14;7.40;56.50
12769;DHT22;6448;48.916;8.990;2024-01-30T03:44:15;7.40;56.60
12769;DHT22;6448;48.916;8.990;2024-01-30T03:45:17;7.40;56.50
12769;DHT22;6448;48.916;8.990;2024-01-30T03:46:20;7.40;56.50
12769;DHT22;6448;48.916;8.990;2024-01-30T03:47:21;7.40;56.50
12769;DHT22;6448;48.916;8.990;2024-01-30T03:48:22;7.40;56.50
12769;DHT22;6448;48.916;8.990;2024-01-30T03:49:25;7.40;56.50
12769;DHT22;6448;48.916;8.990;2024-01-30T03:50:25;7.40;56.50
12769;DHT22;6448;48.916;8.990;2024-01-30T03:51:28;7.40;56.50
12769;DHT22;6448;48.916;8.990;2024-01-30T03:52:29;7.40;56.50
12769;DHT22;6448;48.916;8.990;2024-01-30T03:53:31;7.30;56.50
12769;DHT22;6448;48.916;8.990;2024-01-30T03:54:33;7.40;56.50
12769;DHT22;6448;48.916;8.990;2024-01-30T03:55:35;7.40;56.50
12769;DHT22;6448;48.916;8.990;2024-01-30T03:56:35;7.40;56.50
12769;DHT22;6448;48.916;8.990;2024-01-30T03:57:37;7.30;56.50
12769;DHT22;6448;48.916;8.990;2024-01-30T03:58:38;7.30;56.50
12769;DHT22;6448;48.916;8.990;2024-01-30T03:59:41;7.30;56.50
12769;DHT22;6448;48.916;8.990;2024-01-30T04:00:42;7.30;56.50
12769;DHT22;6448;48.916;8.990;2024-01-30T04:01:46;7.30;56.60
12769;DHT22;6448;48.916;8.990;2024-01-30T04:02:47;7.30;56.70
12769;DHT22;6448;48.916;8.990;2024-01-30T04:03:48;7.30;56.70
12769;DHT22;6448;48.916;8.990;2024-01-30T04:04:49;7.30;56.70
12769;DHT22;6448;48.916;8.990;2024-01-30T04:05:51;7.30;56.70
12769;DHT22;6448;48.916;8.990;2024-01-30T04:06:53;7.30;56.70
12769;DHT22;6448;48.916;8.990;2024-01-30T04:07:53;7.30;56.70
12769;DHT22;6448;48.916;8.990;2024-01-30T04:08:55;7.30;56.70
12769;DHT22;6448;48.916;8.990;2024-01-30T04:09:57;7.30;56.70
12769;DHT22;6448;48.916;8.990;2024-01-30T04:10:58;7.30;56.70
12769;DHT22;6448;48.916;8.990;2024-01-30T04:12:00;7.30;56.70
12769;DHT22;6448;48.916;8.990;2024-01-30T04:13:03;7.30;56.70
12769;DHT22;6448;48.916;8.990;2024-01-30T04:14:05;7.30;56.70
12769;DHT22;6448;48.916;8.990;2024-01-30T04:15:06;7.30;56.70
12769;DHT22;6448;48.916;8.990;2024-01-30T04:16:08;7.30;56.70
12769;DHT22;6448;48.916;8.990;2024-01-30T04:17:09;7.30;56.70
12769;DHT22;6448;48.916;8.990;2024-01-30T04:18:11;7.20;56.70
12769;DHT22;6448;48.916;8.990;2024-01-30T04:19:11;7.20;56.70
12769;DHT22;6448;48.916;8.990;2024-01-30T04:20:14;7.30;56.80
12769;DHT22;6448;48.916;8.990;2024-01-30T04:21:15;7.20;56.80
12769;DHT22;6448;48.916;8.990;2024-01-30T04:22:17;7.20;56.80
12769;DHT22;6448;48.916;8.990;2024-01-30T04:23:18;7.20;56.80
12769;DHT22;6448;48.916;8.990;2024-01-30T04:24:19;7.30;56.80
12769;DHT22;6448;48.916;8.990;2024-01-30T04:25:22;7.30;56.80
12769;DHT22;6448;48.916;8.990;2024-01-30T04:26:22;7.20;56.70
12769;DHT22;6448;48.916;8.990;2024-01-30T04:27:24;7.20;56.80
12769;DHT22;6448;48.916;8.990;2024-01-30T04:28:25;7.20;56.70
12769;DHT22;6448;48.916;8.990;2024-01-30T04:29:26;7.20;56.70
12769;DHT22;6448;48.916;8.990;2024-01-30T04:30:27;7.20;56.80
12769;DHT22;6448;48.916;8.990;2024-01-30T04:31:28;7.20;56.80
12769;DHT22;6448;48.916;8.990;2024-01-30T04:32:30;7.20;56.80
12769;DHT22;6448;48.916;8.990;2024-01-30T04:33:30;7.20;57.50
12769;DHT22;6448;48.916;8.990;2024-01-30T04:34:32;7.20;56.80
12769;DHT22;6448;48.916;8.990;2024-01-30T04:35:33;7.20;56.80
12769;DHT22;6448;48.916;8.990;2024-01-30T04:36:35;7.20;56.80
12769;DHT22;6448;48.916;8.990;2024-01-30T04:37:36;7.20;56.80
12769;DHT22;6448;48.916;8.990;2024-01-30T04:38:37;7.20;56.80
12769;DHT22;6448;48.916;8.990;2024-01-30T04:39:39;7.20;56.90
12769;DHT22;6448;48.916;8.990;2024-01-30T04:40:41;7.20;56.90
12769;DHT22;6448;48.916;8.990;2024-01-30T04:41:42;7.20;56.80
12769;DHT22;6448;48.916;8.990;2024-01-30T04:42:43;7.20;56.80
12769;DHT22;6448;48.916;8.990;2024-01-30T04:43:44;7.20;56.80
12769;DHT22;6448;48.916;8.990;2024-01-30T04:44:46;7.20;56.80
12769;DHT22;6448;48.916;8.990;2024-01-30T04:45:47;7.20;56.90
12769;DHT22;6448;48.916;8.990;2024-01-30T04:46:49;7.20;56.90
12769;DHT22;6448;48.916;8.990;2024-01-30T04:47:50;7.20;56.90
12769;DHT22;6448;48.916;8.990;2024-01-30T04:48:51;7.10;56.80
12769;DHT22;6448;48.916;8.990;2024-01-30T04:49:52;7.20;56.90
12769;DHT22;6448;48.916;8.990;2024-01-30T04:50:54;7.20;56.90
12769;DHT22;6448;48.916;8.990;2024-01-30T04:51:56;7.20;56.90
12769;DHT22;6448;48.916;8.990;2024-01-30T04:52:58;7.10;56.90
12769;DHT22;6448;48.916;8.990;2024-01-30T04:53:59;7.10;56.80
12769;DHT22;6448;48.916;8.990;2024-01-30T04:55:01;7.20;56.90
12769;DHT22;6448;48.916;8.990;2024-01-30T04:56:05;7.10;56.90
12769;DHT22;6448;48.916;8.990;2024-01-30T04:57:06;7.20;57.00
12769;DHT22;6448;48.916;8.990;2024-01-30T04:58:10;7.10;56.90
12769;DHT22;6448;48.916;8.990;2024-01-30T04:59:11;7.20;57.00
12769;DHT22;6448;48.916;8.990;2024-01-30T05:00:13;7.10;56.90
12769;DHT22;6448;48.916;8.990;2024-01-30T05:01:16;7.10;56.90
12769;DHT22;6448;48.916;8.990;2024-01-30T05:02:16;7.10;56.90
12769;DHT22;6448;48.916;8.990;2024-01-30T05:03:19;7.10;56.90
12769;DHT22;6448;48.916;8.990;2024-01-30T05:04:20;7.10;56.90
12769;DHT22;6448;48.916;8.990;2024-01-30T05:05:22;7.30;57.10
12769;DHT22;6448;48.916;8.990;2024-01-30T05:06:26;7.10;57.00
12769;DHT22;6448;48.916;8.990;2024-01-30T05:07:27;7.10;57.00
12769;DHT22;6448;48.916;8.990;2024-01-30T05:08:29;7.10;57.00
12769;DHT22;6448;48.916;8.990;2024-01-30T05:09:29;7.10;56.90
12769;DHT22;6448;48.916;8.990;2024-01-30T05:10:31;7.10;56.90
12769;DHT22;6448;48.916;8.990;2024-01-30T05:11:36;7.10;56.90
12769;DHT22;6448;48.916;8.990;2024-01-30T05:12:38;7.10;56.90
12769;DHT22;6448;48.916;8.990;2024-01-30T05:13:40;7.10;56.90
12769;DHT22;6448;48.916;8.990;2024-01-30T05:14:41;7.10;56.90
12769;DHT22;6448;48.916;8.990;2024-01-30T05:15:43;7.10;56.90
12769;DHT22;6448;48.916;8.990;2024-01-30T05:16:43;7.10;56.90
12769;DHT22;6448;48.916;8.990;2024-01-30T05:17:47;7.10;56.90
12769;DHT22;6448;48.916;8.990;2024-01-30T05:18:48;7.10;56.90
12769;DHT22;6448;48.916;8.990;2024-01-30T05:19:50;7.10;56.90
12769;DHT22;6448;48.916;8.990;2024-01-30T05:20:50;7.10;56.80
12769;DHT22;6448;48.916;8.990;2024-01-30T05:21:52;7.10;56.80
12769;DHT22;6448;48.916;8.990;2024-01-30T05:22:53;7.10;56.80
12769;DHT22;6448;48.916;8.990;2024-01-30T05:23:55;7.10;56.80
12769;DHT22;6448;48.916;8.990;2024-01-30T05:24:55;7.10;56.80
12769;DHT22;6448;48.916;8.990;2024-01-30T05:25:56;7.10;56.90
12769;DHT22;6448;48.916;8.990;2024-01-30T05:26:59;7.00;56.90
12769;DHT22;6448;48.916;8.990;2024-01-30T05:28:00;7.00;56.90
12769;DHT22;6448;48.916;8.990;2024-01-30T05:29:02;7.10;56.90
12769;DHT22;6448;48.916;8.990;2024-01-30T05:30:03;7.10;57.50
12769;DHT22;6448;48.916;8.990;2024-01-30T05:31:05;7.10;56.90
12769;DHT22;6448;48.916;8.990;2024-01-30T05:32:06;7.00;56.90
12769;DHT22;6448;48.916;8.990;2024-01-30T05:33:08;7.10;56.90
12769;DHT22;6448;48.916;8.990;2024-01-30T05:34:08;7.00;56.90
12769;DHT22;6448;48.916;8.990;2024-01-30T05:35:09;7.00;56.90
12769;DHT22;6448;48.916;8.990;2024-01-30T05:36:12;7.00;56.90
12769;DHT22;6448;48.916;8.990;2024-01-30T05:37:12;7.00;56.90
12769;DHT22;6448;48.916;8.990;2024-01-30T05:38:17;7.10;56.90
12769;DHT22;6448;48.916;8.990;2024-01-30T05:39:18;7.10;56.90
12769;DHT22;6448;48.916;8.990;2024-01-30T05:40:18;7.00;56.90
12769;DHT22;6448;48.916;8.990;2024-01-30T05:41:20;7.00;56.90
12769;DHT22;6448;48.916;8.990;2024-01-30T05:42:23;7.00;56.90
12769;DHT22;6448;48.916;8.990;2024-01-30T05:43:23;7.00;56.80
12769;DHT22;6448;48.916;8.990;2024-01-30T05:44:25;7.00;56.80
12769;DHT22;6448;48.916;8.990;2024-01-30T05:45:26;6.80;56.70
12769;DHT22;6448;48.916;8.990;2024-01-30T05:46:28;7.00;56.90
12769;DHT22;6448;48.916;8.990;2024-01-30T05:47:28;7.00;56.80
12769;DHT22;6448;48.916;8.990;2024-01-30T05:48:29;7.00;56.80
12769;DHT22;6448;48.916;8.990;2024-01-30T05:49:31;7.00;56.80
12769;DHT22;6448;48.916;8.990;2024-01-30T05:50:32;7.00;56.90
12769;DHT22;6448;48.916;8.990;2024-01-30T05:51:33;7.00;56.90
12769;DHT22;6448;48.916;8.990;2024-01-30T05:52:34;7.00;56.90
12769;DHT22;6448;48.916;8.990;2024-01-30T05:53:35;7.00;56.90
12769;DHT22;6448;48.916;8.990;2024-01-30T05:54:37;7.00;56.90
12769;DHT22;6448;48.916;8.990;2024-01-30T05:55:38;7.00;56.90
12769;DHT22;6448;48.916;8.990;2024-01-30T05:56:39;7.00;56.90
12769;DHT22;6448;48.916;8.990;2024-01-30T05:57:41;7.00;56.90
12769;DHT22;6448;48.916;8.990;2024-01-30T05:58:43;7.00;56.90
12769;DHT22;6448;48.916;8.990;2024-01-30T05:59:44;7.00;56.90
12769;DHT22;6448;48.916;8.990;2024-01-30T06:00:48;7.00;56.90
12769;DHT22;6448;48.916;8.990;2024-01-30T06:01:48;7.20;57.00
12769;DHT22;6448;48.916;8.990;2024-01-30T06:02:50;7.00;56.90
12769;DHT22;6448;48.916;8.990;2024-01-30T06:03:51;7.00;56.90
12769;DHT22;6448;48.916;8.990;2024-01-30T06:04:53;7.00;57.00
12769;DHT22;6448;48.916;8.990;2024-01-30T06:05:53;7.00;56.90
12769;DHT22;6448;48.916;8.990;2024-01-30T06:06:55;7.00;56.90
12769;DHT22;6448;48.916;8.990;2024-01-30T06:07:56;7.00;56.90
12769;DHT22;6448;48.916;8.990;2024-01-30T06:08:56;7.00;56.90
12769;DHT22;6448;48.916;8.990;2024-01-30T06:09:58;7.00;56.90
12769;DHT22;6448;48.916;8.990;2024-01-30T06:11:01;7.00;56.80
12769;DHT22;6448;48.916;8.990;2024-01-30T06:12:03;7.00;56.80
12769;DHT22;6448;48.916;8.990;2024-01-30T06:13:06;7.00;56.80
12769;DHT22;6448;48.916;8.990;2024-01-30T06:14:08;7.00;56.80
12769;DHT22;6448;48.916;8.990;2024-01-30T06:15:09;7.00;56.80
12769;DHT22;6448;48.916;8.990;2024-01-30T06:16:13;6.90;56.80
12769;DHT22;6448;48.916;8.990;2024-01-30T06:17:14;6.90;56.80
12769;DHT22;6448;48.916;8.990;2024-01-30T06:18:15;6.90;56.80
12769;DHT22;6448;48.916;8.990;2024-01-30T06:19:16;6.90;56.70
12769;DHT22;6448;48.916;8.990;2024-01-30T06:20:18;7.00;56.80
12769;DHT22;6448;48.916;8.990;2024-01-30T06:21:18;6.90;56.70
12769;DHT22;6448;48.916;8.990;2024-01-30T06:22:19;6.90;56.60
12769;DHT22;6448;48.916;8.990;2024-01-30T06:23:21;6.90;56.60
12769;DHT22;6448;48.916;8.990;2024-01-30T06:24:22;6.90;56.60
12769;DHT22;6448;48.916;8.990;2024-01-30T06:25:24;6.90;56.60
12769;DHT22;6448;48.916;8.990;2024-01-30T06:26:24;6.90;56.60
12769;DHT22;6448;48.916;8.990;2024-01-30T06:27:26;6.90;56.60
12769;DHT22;6448;48.916;8.990;2024-01-30T06:28:28;6.90;56.60
12769;DHT22;6448;48.916;8.990;2024-01-30T06:29:30;6.90;56.60
12769;DHT22;6448;48.916;8.990;2024-01-30T06:30:30;6.90;56.70
12769;DHT22;6448;48.916;8.990;2024-01-30T06:31:32;6.90;56.70
12769;DHT22;6448;48.916;8.990;2024-01-30T06:32:33;6.90;56.70
12769;DHT22;6448;48.916;8.990;2024-01-30T06:33:35;6.90;56.60
12769;DHT22;6448;48.916;8.990;2024-01-30T06:34:35;6.90;56.60
12769;DHT22;6448;48.916;8.990;2024-01-30T06:35:40;6.80;56.60
12769;DHT22;6448;48.916;8.990;2024-01-30T06:36:41;6.90;56.80
12769;DHT22;6448;48.916;8.990;2024-01-30T06:37:42;6.90;56.70
12769;DHT22;6448;48.916;8.990;2024-01-30T06:38:43;6.90;56.70
12769;DHT22;6448;48.916;8.990;2024-01-30T06:39:45;6.90;56.80
12769;DHT22;6448;48.916;8.990;2024-01-30T06:40:46;6.90;56.80
12769;DHT22;6448;48.916;8.990;2024-01-30T06:41:47;6.90;56.90
12769;DHT22;6448;48.916;8.990;2024-01-30T06:42:48;6.90;56.80